ADDS METAR Data INFO
IDs: Format: Raw Decoded Include TAF

Data at: 1209 UTC 21 Jun 2018

KPUJ 211155Z AUTO 00000KT 7SM SCT120 23/20 A2994 RMK AO2
KPUJ 211135Z AUTO 00000KT 10SM SCT120 22/20 A2994 RMK AO2
KPUJ 211115Z AUTO 00000KT 10SM CLR 21/20 A2993 RMK AO2
KPUJ 211055Z AUTO 00000KT 10SM CLR 21/18 A2993 RMK AO2
KPUJ 211035Z AUTO 00000KT 10SM CLR 22/18 A2993 RMK AO2
KPUJ 211015Z AUTO 00000KT 7SM CLR 21/20 A2993 RMK AO2
KPUJ 210955Z AUTO 00000KT 10SM CLR 21/20 A2992 RMK AO2
KPUJ 210935Z AUTO 00000KT 10SM CLR 21/19 A2992 RMK AO2
KPUJ 210915Z AUTO 00000KT 10SM CLR 22/19 A2992 RMK AO2
KPUJ 210855Z AUTO 00000KT 10SM SCT120 22/20 A2993 RMK AO2
KPUJ 210835Z AUTO 00000KT 10SM OVC120 22/19 A2993 RMK AO2
KPUJ 210815Z AUTO 00000KT 10SM BKN110 22/19 A2993 RMK AO2
KPUJ 210755Z AUTO 00000KT 10SM BKN110 23/18 A2993 RMK AO2
KPUJ 210735Z AUTO 00000KT 10SM SCT095 BKN110 24/18 A2993 RMK AO2
KPUJ 210715Z AUTO 00000KT 10SM SCT100 BKN120 23/18 A2993 RMK AO2
KPUJ 210655Z AUTO 00000KT 10SM BKN120 23/19 A2994 RMK AO2
KPUJ 210635Z AUTO 32003KT 10SM CLR 23/18 A2995 RMK AO2
KPUJ 210615Z AUTO 00000KT 10SM CLR 25/18 A2995 RMK AO2
KPUJ 210555Z AUTO 00000KT 10SM CLR 25/18 A2995 RMK AO2
KPUJ 210535Z AUTO 31003KT 10SM CLR 25/18 A2996 RMK AO2
KPUJ 210515Z AUTO 00000KT 10SM CLR 25/18 A2997 RMK AO2
KPUJ 210455Z AUTO 33004KT 7SM CLR 25/18 A2997 RMK AO2
KPUJ 210435Z AUTO 32003KT 10SM CLR 25/18 A2997 RMK AO2
KPUJ 210415Z AUTO 31003KT 10SM CLR 25/18 A2998 RMK AO2
KPUJ 210355Z AUTO 32003KT 10SM CLR 25/18 A2998 RMK AO2
KPUJ 210335Z AUTO 32003KT 10SM SCT050 25/18 A2998 RMK AO2
KPUJ 210315Z AUTO 31003KT 10SM BKN050 25/18 A2998 RMK AO2
KPUJ 210255Z AUTO 31003KT 10SM SCT050 25/18 A2998 RMK AO2
KPUJ 210235Z AUTO 31004KT 10SM CLR 25/18 A2997 RMK AO2
KPUJ 210215Z AUTO 32004KT 10SM CLR 25/18 A2997 RMK AO2
KPUJ 210155Z AUTO 00000KT 10SM CLR 25/19 A2996 RMK AO2
KPUJ 210135Z AUTO 00000KT 10SM CLR 25/19 A2996 RMK AO2
KPUJ 210115Z AUTO 00000KT 10SM CLR 26/20 A2995 RMK AO2
KPUJ 210055Z AUTO 32003KT 7SM SCT050 26/20 A2995 RMK AO2
KPUJ 210035Z AUTO 31003KT 10SM BKN050 27/20 A2995 RMK AO2
KPUJ 210015Z AUTO 00000KT 7SM BKN050 28/20 A2995 RMK AO2
KPUJ 202355Z AUTO 00000KT 10SM SCT050 28/20 A2994 RMK AO2
KPUJ 202335Z AUTO 00000KT 10SM SCT050 29/19 A2994 RMK AO2
KPUJ 202315Z AUTO 29003KT 7SM CLR 30/18 A2993 RMK AO2
KPUJ 202255Z AUTO 29003KT 7SM CLR 30/18 A2993 RMK AO2
KPUJ 202235Z AUTO 30003KT 7SM CLR 30/17 A2994 RMK AO2
KPUJ 202215Z AUTO 30005KT 10SM CLR 31/17 A2994 RMK AO2
KPUJ 202155Z AUTO 30006KT 10SM CLR 31/16 A2994 RMK AO2
KPUJ 202135Z AUTO 30005KT 10SM CLR 31/19 A2995 RMK AO2
KPUJ 202115Z AUTO 33005KT 7SM CLR 31/17 A2995 RMK AO2
KPUJ 202055Z AUTO 29005KT 7SM SCT080 SCT090 30/19 A2996 RMK AO2
KPUJ 202035Z AUTO 29004KT 10SM SCT080 SCT090 30/18 A2997 RMK AO2
KPUJ 202015Z AUTO 30009KT 10SM SCT050 SCT065 31/18 A2997 RMK AO2
KPUJ 201955Z AUTO 30006KT 7SM CLR 31/17 A2998 RMK AO2
KPUJ 201935Z AUTO 26003G14KT 10SM SCT049 31/17 A2998 RMK AO2
KPUJ 201915Z AUTO 33008KT 320V020 10SM BKN049 BKN065 31/18 A2999 RMK AO2
KPUJ 201855Z AUTO 33008KT 7SM SCT049 BKN065 30/17 A2999 RMK AO2
KPUJ 201835Z AUTO 29005KT 10SM SCT050 SCT065 31/17 A2999 RMK AO2
KPUJ 201815Z AUTO 33005KT 7SM SCT050 SCT065 31/18 A3000 RMK AO2
KPUJ 201755Z AUTO 34008KT 10SM CLR 31/17 A3000 RMK AO2
KPUJ 201735Z AUTO 31007G15KT 7SM SCT050 29/16 A3001 RMK AO2
KPUJ 201715Z AUTO 36008KT 10SM CLR 31/17 A3001 RMK AO2
KPUJ 201655Z AUTO 34007KT 300V020 10SM CLR 30/17 A3002 RMK AO2
KPUJ 201635Z AUTO 35007KT 7SM CLR 30/18 A3002 RMK AO2
KPUJ 201615Z AUTO 35007KT 10SM CLR 30/17 A3002 RMK AO2
KPUJ 201555Z AUTO 32010KT 10SM CLR 30/16 A3003 RMK AO2
KPUJ 201535Z AUTO 32008KT 7SM CLR 29/18 A3003 RMK AO2
KPUJ 201515Z AUTO 34008KT 7SM CLR 28/18 A3003 RMK AO2
KPUJ 201455Z AUTO 33006KT 7SM CLR 28/19 A3002 RMK AO2
KPUJ 201435Z AUTO 35006KT 7SM CLR 27/20 A3003 RMK AO2
KPUJ 201415Z AUTO 32007KT 7SM CLR 27/20 A3003 RMK AO2
KPUJ 201355Z AUTO 35005KT 7SM CLR 27/20 A3003 RMK AO2
KPUJ 201335Z AUTO 33006KT 10SM CLR 26/20 A3003 RMK AO2
KPUJ 201315Z AUTO 32006KT 7SM CLR 26/20 A3003 RMK AO2
KPUJ 201255Z AUTO 32007KT 10SM CLR 25/20 A3002 RMK AO2
KPUJ 201235Z AUTO 32007KT 7SM CLR 24/19 A3002 RMK AO2
KPUJ 201215Z AUTO 32006KT 10SM CLR 24/20 A3002 RMK AO2
KPUJ 201155Z AUTO 32008KT 10SM CLR 23/19 A3002 RMK AO2
KPUJ 201135Z AUTO 33005KT 10SM CLR 23/19 A3000 RMK AO2
KPUJ 201115Z AUTO 32004KT 10SM CLR 22/19 A3000 RMK AO2
KPUJ 201055Z AUTO 32005KT 10SM CLR 22/18 A3000 RMK AO2
KPUJ 201035Z AUTO 32005KT 10SM CLR 22/18 A3000 RMK AO2
KPUJ 201015Z AUTO 32006KT 10SM CLR 22/18 A3000 RMK AO2
KPUJ 200955Z AUTO 32006KT 10SM CLR 22/18 A3000 RMK AO2
KPUJ 200935Z AUTO 32006KT 10SM CLR 22/18 A2999 RMK AO2
KPUJ 200915Z AUTO 31005KT 10SM CLR 22/18 A2999 RMK AO2
KPUJ 200855Z AUTO 31006KT 10SM CLR 22/18 A2999 RMK AO2
KPUJ 200835Z AUTO 32007KT 10SM CLR 22/18 A2999 RMK AO2
KPUJ 200815Z AUTO 32005KT 10SM CLR 22/18 A2999 RMK AO2
KPUJ 200755Z AUTO 31005KT 10SM CLR 23/18 A3000 RMK AO2
KPUJ 200735Z AUTO 31006KT 10SM CLR 23/18 A3000 RMK AO2
KPUJ 200715Z AUTO 31006KT 10SM CLR 23/18 A3000 RMK AO2
KPUJ 200655Z AUTO 31006KT 10SM CLR 23/18 A3000 RMK AO2
KPUJ 200635Z AUTO 31005KT 10SM CLR 23/18 A3001 RMK AO2
KPUJ 200615Z AUTO 31005KT 10SM CLR 23/18 A3002 RMK AO2
KPUJ 200555Z AUTO 31005KT 10SM CLR 23/19 A3002 RMK AO2
KPUJ 200535Z AUTO 31004KT 10SM CLR 23/19 A3002 RMK AO2
KPUJ 200515Z AUTO 31005KT 10SM CLR 24/19 A3002 RMK AO2
KPUJ 200455Z AUTO 31005KT 10SM CLR 24/20 A3002 RMK AO2
KPUJ 200435Z AUTO 31004KT 10SM CLR 24/20 A3002 RMK AO2
KPUJ 200415Z AUTO 31004KT 10SM CLR 24/20 A3003 RMK AO2
KPUJ 200355Z AUTO 32005KT 10SM CLR 24/20 A3002 RMK AO2
KPUJ 200335Z AUTO 32006KT 10SM CLR 25/20 A3002 RMK AO2
KPUJ 200315Z AUTO 32005KT 10SM CLR 25/20 A3002 RMK AO2
KPUJ 200255Z AUTO 32005KT 10SM CLR 25/21 A3002 RMK AO2
KPUJ 200235Z AUTO 31005KT 10SM CLR 25/21 A3002 RMK AO2
KPUJ 200215Z AUTO 31005KT 10SM CLR 25/20 A3001 RMK AO2
KPUJ 200155Z AUTO 32004KT 10SM CLR 26/20 A3000 RMK AO2
KPUJ 200135Z AUTO 33004KT 10SM CLR 25/20 A3000 RMK AO2
KPUJ 200115Z AUTO 32003KT 10SM CLR 26/20 A3000 RMK AO2
KPUJ 200055Z AUTO 32003KT 7SM CLR 26/20 A3000 RMK AO2
KPUJ 200035Z AUTO 32003KT 7SM CLR 27/20 A3000 RMK AO2
KPUJ 200015Z AUTO 33004KT 5SM HZ CLR 28/19 A3000 RMK AO2